createdAt,value
2023-03-25T00:00:39.848Z,93.30
2023-03-25T00:03:09.470Z,93.50
2023-03-25T00:05:40.715Z,93.50
2023-03-25T00:08:08.127Z,93.30
2023-03-25T00:10:35.780Z,93.30
2023-03-25T00:13:05.724Z,93.50
2023-03-25T00:15:34.382Z,93.20
2023-03-25T00:18:02.303Z,93.40
2023-03-25T00:20:29.816Z,93.40
2023-03-25T00:23:00.184Z,93.50
2023-03-25T00:25:27.690Z,93.60
2023-03-25T00:27:55.235Z,93.70
2023-03-25T00:30:22.690Z,93.80
2023-03-25T00:32:53.387Z,93.80
2023-03-25T00:35:22.117Z,93.50
2023-03-25T00:38:00.523Z,93.80
2023-03-25T00:40:30.381Z,93.70
2023-03-25T00:42:57.969Z,93.80
2023-03-25T00:45:25.513Z,94.00
2023-03-25T00:47:53.121Z,94.10
2023-03-25T00:50:21.947Z,94.00
2023-03-25T00:52:50.170Z,94.00
2023-03-25T00:55:18.618Z,94.10
2023-03-25T00:57:46.454Z,94.40
2023-03-25T01:00:17.536Z,94.70
2023-03-25T01:02:46.102Z,94.50
2023-03-25T01:05:13.810Z,94.50
2023-03-25T01:07:44.201Z,93.80
2023-03-25T01:10:11.771Z,93.10
2023-03-25T01:12:39.208Z,92.90
2023-03-25T01:15:07.270Z,92.40
2023-03-25T01:17:34.776Z,91.50
2023-03-25T01:20:06.206Z,91.10
2023-03-25T01:22:33.537Z,90.90
2023-03-25T01:25:00.941Z,90.60
2023-03-25T01:27:30.999Z,90.90
2023-03-25T01:29:58.436Z,90.90
2023-03-25T01:32:26.157Z,90.80
2023-03-25T01:35:15.044Z,90.90
2023-03-25T01:37:45.196Z,91.00
2023-03-25T01:40:19.851Z,91.20
2023-03-25T01:42:47.725Z,91.50
2023-03-25T01:45:22.270Z,91.80
2023-03-25T01:48:03.053Z,92.10
2023-03-25T01:50:32.664Z,92.40
2023-03-25T01:53:03.310Z,92.80
2023-03-25T01:55:35.211Z,93.20
2023-03-25T01:58:10.665Z,93.50
2023-03-25T02:00:40.978Z,93.70
2023-03-25T02:03:10.220Z,93.60
2023-03-25T02:05:49.203Z,94.10
2023-03-25T02:08:20.993Z,94.70
2023-03-25T02:10:50.048Z,95.50
2023-03-25T02:13:17.662Z,96.40
2023-03-25T02:16:09.085Z,96.80
2023-03-25T02:18:57.034Z,97.10
2023-03-25T02:21:50.372Z,97.70
2023-03-25T02:24:55.076Z,98.10
2023-03-25T02:27:46.013Z,98.50
2023-03-25T02:30:45.411Z,98.70
2023-03-25T02:33:42.484Z,99.40
2023-03-25T02:36:41.555Z,99.90
2023-03-25T02:39:19.242Z,99.90
2023-03-25T02:42:31.234Z,99.90
2023-03-25T02:45:04.022Z,99.90
2023-03-25T02:47:34.755Z,99.90
2023-03-25T02:50:17.585Z,99.90
2023-03-25T02:52:51.267Z,99.90
2023-03-25T02:55:22.973Z,99.90
2023-03-25T02:57:53.376Z,99.90
2023-03-25T03:00:28.727Z,99.90
2023-03-25T03:03:04.805Z,99.90
2023-03-25T03:05:42.831Z,99.90
2023-03-25T03:08:32.834Z,99.90
2023-03-25T03:11:08.264Z,99.90
2023-03-25T03:14:06.248Z,99.90
2023-03-25T03:16:48.689Z,99.90
2023-03-25T03:19:40.793Z,99.90
2023-03-25T03:22:37.055Z,99.90
2023-03-25T03:25:32.419Z,99.90
2023-03-25T03:28:10.056Z,99.90
2023-03-25T03:30:52.226Z,99.90
2023-03-25T03:33:33.910Z,99.90
2023-03-25T03:36:11.679Z,99.90
2023-03-25T03:38:46.876Z,99.90
2023-03-25T03:41:19.379Z,99.90
2023-03-25T03:44:04.305Z,99.90
2023-03-25T03:46:46.061Z,99.90
2023-03-25T03:49:18.661Z,99.90
2023-03-25T03:52:08.933Z,99.90
2023-03-25T03:54:47.849Z,99.90
2023-03-25T03:57:38.381Z,99.90
2023-03-25T04:00:10.110Z,99.90
2023-03-25T04:02:40.183Z,99.90
2023-03-25T04:05:12.329Z,99.90
2023-03-25T04:08:12.131Z,99.90
2023-03-25T04:11:05.244Z,99.90
2023-03-25T04:13:36.891Z,99.90
2023-03-25T04:16:07.495Z,99.90
2023-03-25T04:18:34.871Z,99.90
2023-03-25T04:21:02.187Z,99.90
2023-03-25T04:23:34.438Z,99.90
2023-03-25T04:26:03.172Z,99.90
2023-03-25T04:28:32.084Z,99.90
2023-03-25T04:31:00.864Z,99.90
2023-03-25T04:33:32.387Z,99.90
2023-03-25T04:36:02.371Z,99.90
2023-03-25T04:38:30.097Z,99.90
2023-03-25T04:40:59.163Z,99.90
2023-03-25T04:43:26.802Z,99.90
2023-03-25T04:45:55.081Z,99.90
2023-03-25T04:48:32.465Z,99.90
2023-03-25T04:51:00.716Z,99.90
2023-03-25T04:53:28.710Z,99.90
2023-03-25T04:55:56.913Z,99.90
2023-03-25T04:58:24.443Z,99.90
2023-03-25T05:00:53.085Z,99.90
2023-03-25T05:03:30.266Z,99.90
2023-03-25T05:06:15.511Z,99.90
2023-03-25T05:09:07.720Z,99.90
2023-03-25T05:11:46.514Z,99.90
2023-03-25T05:14:16.581Z,99.90
2023-03-25T05:16:49.242Z,99.90
2023-03-25T05:19:19.431Z,99.90
2023-03-25T05:21:49.283Z,99.90
2023-03-25T05:24:24.284Z,99.90
2023-03-25T05:26:55.175Z,99.90
2023-03-25T05:29:24.981Z,99.90
2023-03-25T05:31:52.463Z,99.90
2023-03-25T05:34:33.355Z,99.90
2023-03-25T05:37:14.482Z,99.90
2023-03-25T05:40:21.279Z,99.90
2023-03-25T05:46:00.151Z,99.90
2023-03-25T05:48:30.392Z,99.90
2023-03-25T05:51:12.925Z,99.90
2023-03-25T05:53:45.775Z,99.90
2023-03-25T05:56:29.900Z,99.90
2023-03-25T05:59:08.079Z,99.90
2023-03-25T06:01:38.264Z,99.90
2023-03-25T06:04:16.917Z,99.90
2023-03-25T06:06:47.860Z,99.90
2023-03-25T06:09:28.340Z,99.90
2023-03-25T06:11:56.003Z,99.90
2023-03-25T06:14:25.788Z,99.90
2023-03-25T06:17:02.338Z,99.90
2023-03-25T06:19:42.723Z,99.90
2023-03-25T06:51:34.573Z,99.90
2023-03-25T06:54:04.695Z,99.90
2023-03-25T06:56:34.459Z,99.90
2023-03-25T06:59:01.829Z,99.90
2023-03-25T07:01:29.457Z,99.90
2023-03-25T07:03:56.902Z,99.90
2023-03-25T07:06:35.016Z,99.90
2023-03-25T07:09:02.372Z,99.90
2023-03-25T07:11:31.180Z,99.90
2023-03-25T07:13:58.734Z,99.90
2023-03-25T07:16:31.564Z,99.90
2023-03-25T07:19:20.604Z,99.90
2023-03-25T07:21:47.818Z,99.90
2023-03-25T07:24:15.204Z,99.90
2023-03-25T07:26:42.704Z,99.90
2023-03-25T07:29:13.828Z,99.90
2023-03-25T07:31:41.900Z,99.90
2023-03-25T07:34:09.237Z,99.90
2023-03-25T07:36:36.655Z,99.90
2023-03-25T07:39:08.083Z,99.90
2023-03-25T07:41:35.741Z,99.90
2023-03-25T07:44:28.487Z,99.90
2023-03-25T07:46:57.118Z,99.90
2023-03-25T07:49:24.973Z,99.90
2023-03-25T07:51:52.294Z,99.90
2023-03-25T07:54:22.467Z,99.90
2023-03-25T07:56:49.806Z,99.90
2023-03-25T07:59:17.211Z,99.90
2023-03-25T08:01:44.557Z,99.90
2023-03-25T08:04:13.931Z,99.90
2023-03-25T08:06:41.797Z,99.90
2023-03-25T08:09:09.161Z,99.90
2023-03-25T08:11:36.580Z,99.90
2023-03-25T08:14:04.272Z,99.90
2023-03-25T08:16:32.671Z,99.90
2023-03-25T08:19:00.118Z,99.90
2023-03-25T08:21:28.024Z,99.90
2023-03-25T08:23:58.640Z,99.90
2023-03-25T08:26:27.177Z,99.90
2023-03-25T08:28:58.036Z,99.90
2023-03-25T08:31:26.643Z,99.90
2023-03-25T08:33:54.116Z,98.50
2023-03-25T08:36:23.308Z,97.10
2023-03-25T08:38:51.447Z,97.90
2023-03-25T08:41:18.913Z,97.20
2023-03-25T08:43:46.320Z,95.80
2023-03-25T08:46:14.316Z,93.70
2023-03-25T08:48:41.844Z,93.30
2023-03-25T08:51:09.023Z,92.50
2023-03-25T08:53:36.429Z,91.80
2023-03-25T08:56:03.930Z,90.00
2023-03-25T08:58:31.238Z,89.00
2023-03-25T09:00:58.686Z,89.00
2023-03-25T09:03:28.970Z,88.10
2023-03-25T09:05:56.295Z,87.50
2023-03-25T09:08:23.808Z,85.60
2023-03-25T09:10:51.026Z,83.60
2023-03-25T09:13:18.367Z,84.90
2023-03-25T09:15:46.296Z,83.60
2023-03-25T09:18:13.815Z,83.80
2023-03-25T09:20:41.532Z,83.20
2023-03-25T09:23:09.972Z,84.30
2023-03-25T09:25:38.578Z,81.10
2023-03-25T09:28:06.316Z,79.40
2023-03-25T09:30:33.625Z,80.10
2023-03-25T09:33:01.808Z,79.00
2023-03-25T09:35:29.261Z,78.90
2023-03-25T09:37:56.625Z,79.40
2023-03-25T09:40:24.270Z,78.90
2023-03-25T09:43:27.682Z,79.30
2023-03-25T09:45:56.577Z,78.90
2023-03-25T09:48:23.859Z,80.00
2023-03-25T09:50:51.282Z,79.00
2023-03-25T09:53:40.321Z,79.10
2023-03-25T09:56:15.466Z,79.30
2023-03-25T09:58:47.326Z,77.50
2023-03-25T10:01:42.720Z,79.10
2023-03-25T10:04:24.540Z,75.90
2023-03-25T10:07:03.700Z,75.60
2023-03-25T10:09:54.325Z,74.00
2023-03-25T10:12:28.602Z,73.90
2023-03-25T10:15:13.185Z,74.70
2023-03-25T10:17:56.906Z,73.90
2023-03-25T10:20:54.060Z,73.10
2023-03-25T10:23:34.252Z,74.00
2023-03-25T10:26:08.651Z,69.50
2023-03-25T10:28:43.627Z,69.50
2023-03-25T10:31:17.736Z,70.10
2023-03-25T10:34:11.678Z,71.10
2023-03-25T10:36:45.397Z,70.70
2023-03-25T10:39:19.820Z,72.60
2023-03-25T10:42:26.307Z,72.90
2023-03-25T10:44:54.650Z,75.30
2023-03-25T10:47:29.261Z,77.50
2023-03-25T10:49:59.271Z,76.30
2023-03-25T10:52:26.693Z,76.80
2023-03-25T10:54:55.845Z,77.50
2023-03-25T10:57:29.852Z,77.70
2023-03-25T11:00:18.364Z,77.20
2023-03-25T11:02:48.422Z,76.70
2023-03-25T11:05:19.651Z,74.90
2023-03-25T11:08:18.191Z,76.50
2023-03-25T11:10:57.353Z,76.40
2023-03-25T11:13:30.088Z,75.40
2023-03-25T11:16:03.867Z,75.50
2023-03-25T11:18:38.505Z,74.00
2023-03-25T11:21:15.807Z,73.40
2023-03-25T11:23:46.771Z,73.60
2023-03-25T11:26:23.801Z,73.00
2023-03-25T11:28:56.903Z,71.80
2023-03-25T11:31:27.482Z,71.60
2023-03-25T11:34:17.421Z,72.30
2023-03-25T11:36:55.433Z,72.70
2023-03-25T11:39:34.123Z,71.90
2023-03-25T11:42:23.708Z,70.00
2023-03-25T11:44:53.604Z,70.80
2023-03-25T11:47:31.554Z,70.90
2023-03-25T11:50:00.552Z,70.90
2023-03-25T11:52:39.623Z,71.10
2023-03-25T11:55:12.793Z,70.90
2023-03-25T11:57:42.913Z,70.30
2023-03-25T12:00:37.330Z,70.20
2023-03-25T12:03:20.400Z,69.80
2023-03-25T12:06:05.959Z,69.80
2023-03-25T12:08:59.437Z,69.70
2023-03-25T12:11:32.722Z,69.90
2023-03-25T12:14:11.729Z,69.80
2023-03-25T12:16:55.919Z,69.10
2023-03-25T12:19:44.804Z,69.00
2023-03-25T12:22:21.509Z,68.70
2023-03-25T12:25:23.067Z,69.00
2023-03-25T12:28:24.789Z,67.80
2023-03-25T12:31:28.454Z,66.60
2023-03-25T12:34:07.962Z,68.60
2023-03-25T12:36:41.911Z,69.90
2023-03-25T12:39:51.410Z,70.80
2023-03-25T12:42:48.735Z,70.20
2023-03-25T12:45:47.195Z,67.50
2023-03-25T12:48:51.103Z,66.90
2023-03-25T12:51:25.506Z,66.60
2023-03-25T12:54:11.197Z,66.70
2023-03-25T12:57:06.528Z,67.10
2023-03-25T12:59:36.617Z,66.50
2023-03-25T13:02:31.365Z,66.60
2023-03-25T13:05:12.862Z,65.30
2023-03-25T13:07:49.281Z,65.40
2023-03-25T13:10:25.330Z,65.60
2023-03-25T13:12:56.003Z,66.20
2023-03-25T13:15:32.083Z,65.60
2023-03-25T13:18:09.471Z,66.50
2023-03-25T13:20:43.832Z,67.10
2023-03-25T13:23:18.044Z,67.10
2023-03-25T13:25:57.686Z,65.40
2023-03-25T13:28:40.988Z,65.60
2023-03-25T13:31:17.309Z,65.80
2023-03-25T13:34:02.171Z,66.50
2023-03-25T13:36:38.694Z,66.30
2023-03-25T13:39:30.475Z,66.90
2023-03-25T13:42:08.184Z,67.30
2023-03-25T13:44:41.869Z,67.50
2023-03-25T13:47:23.591Z,67.70
2023-03-25T13:50:02.144Z,66.90
2023-03-25T13:52:34.700Z,65.50
2023-03-25T13:55:04.734Z,64.50
2023-03-25T13:57:32.069Z,64.00
2023-03-25T14:00:21.744Z,63.40
2023-03-25T14:03:14.950Z,63.70
2023-03-25T14:06:06.393Z,63.10
2023-03-25T14:08:49.146Z,63.80
2023-03-25T14:11:20.802Z,63.80
2023-03-25T14:13:52.601Z,62.80
2023-03-25T14:16:27.798Z,63.60
2023-03-25T14:19:02.555Z,63.20
2023-03-25T14:21:42.328Z,63.40
2023-03-25T14:24:35.461Z,64.20
2023-03-25T14:27:04.933Z,64.40
2023-03-25T14:29:42.672Z,64.70
2023-03-25T14:32:16.027Z,65.10
2023-03-25T14:34:50.229Z,65.50
2023-03-25T14:37:27.535Z,65.30
2023-03-25T14:40:22.163Z,65.30
2023-03-25T14:43:00.692Z,65.90
2023-03-25T14:45:32.428Z,65.60
2023-03-25T14:48:00.359Z,66.50
2023-03-25T14:50:30.228Z,66.20
2023-03-25T14:53:11.013Z,66.30
2023-03-25T14:55:45.352Z,66.00
2023-03-25T14:58:28.048Z,67.40
2023-03-25T15:01:14.817Z,66.50
2023-03-25T15:03:44.730Z,66.90
2023-03-25T15:06:30.988Z,65.60
2023-03-25T15:09:02.603Z,64.30
2023-03-25T15:11:35.365Z,64.40
2023-03-25T15:14:13.978Z,65.50
2023-03-25T15:16:47.731Z,64.20
2023-03-25T15:19:17.711Z,63.50
2023-03-25T15:22:01.298Z,63.50
2023-03-25T15:24:49.344Z,61.70
2023-03-25T15:27:50.345Z,62.60
2023-03-25T15:30:39.426Z,62.10
2023-03-25T15:33:43.617Z,60.40
2023-03-25T15:36:31.313Z,60.50
2023-03-25T15:39:25.498Z,60.70
2023-03-25T15:42:04.069Z,60.90
2023-03-25T15:44:37.049Z,61.80
2023-03-25T15:47:35.079Z,61.50
2023-03-25T15:50:28.676Z,61.70
2023-03-25T15:53:01.764Z,62.80
2023-03-25T15:55:38.693Z,62.70
2023-03-25T15:58:23.213Z,63.20
2023-03-25T16:00:55.286Z,62.90
2023-03-25T16:03:27.268Z,63.20
2023-03-25T16:06:00.795Z,62.90
2023-03-25T16:08:36.437Z,63.40
2023-03-25T16:11:18.976Z,63.80
2023-03-25T16:13:46.783Z,63.70
2023-03-25T16:16:17.586Z,63.50
2023-03-25T16:18:46.998Z,63.50
2023-03-25T16:21:15.756Z,63.80
2023-03-25T16:23:43.588Z,63.70
2023-03-25T16:26:18.910Z,64.20
2023-03-25T16:28:46.906Z,64.20
2023-03-25T16:31:34.806Z,63.60
2023-03-25T16:34:02.551Z,64.50
2023-03-25T16:36:30.067Z,64.50
2023-03-25T16:38:58.580Z,64.20
2023-03-25T16:41:26.192Z,64.40
2023-03-25T16:43:55.181Z,64.10
2023-03-25T16:46:23.808Z,64.40
2023-03-25T16:48:53.861Z,64.70
2023-03-25T16:51:35.502Z,64.30
2023-03-25T16:54:10.060Z,64.00
2023-03-25T16:56:39.693Z,64.70
2023-03-25T16:59:08.493Z,64.30
2023-03-25T17:01:45.421Z,64.50
2023-03-25T17:04:19.354Z,65.10
2023-03-25T17:06:53.426Z,64.60
2023-03-25T17:09:25.923Z,65.20
2023-03-25T17:11:57.097Z,65.10
2023-03-25T17:14:34.065Z,65.10
2023-03-25T17:17:28.374Z,65.30
2023-03-25T17:20:00.151Z,64.80
2023-03-25T17:22:36.523Z,65.80
2023-03-25T17:25:37.993Z,65.80
2023-03-25T17:28:30.501Z,66.30
2023-03-25T17:30:58.991Z,66.80
2023-03-25T17:33:30.131Z,67.30
2023-03-25T17:35:58.318Z,67.80
2023-03-25T17:38:37.169Z,67.80
2023-03-25T17:41:09.315Z,68.00
2023-03-25T17:43:46.028Z,68.90
2023-03-25T17:46:20.126Z,69.00
2023-03-25T17:48:53.571Z,70.20
2023-03-25T17:51:21.629Z,70.80
2023-03-25T17:53:50.519Z,71.30
2023-03-25T17:56:26.032Z,71.10
2023-03-25T17:59:06.202Z,71.80
2023-03-25T18:01:36.230Z,71.60
2023-03-25T18:04:05.414Z,71.90
2023-03-25T18:06:33.732Z,72.50
2023-03-25T18:09:03.311Z,73.30
2023-03-25T18:11:32.277Z,73.80
2023-03-25T18:14:00.129Z,74.30
2023-03-25T18:16:28.566Z,74.20
2023-03-25T18:18:57.191Z,74.60
2023-03-25T18:21:25.438Z,74.20
2023-03-25T18:23:53.131Z,74.10
2023-03-25T18:26:22.234Z,73.70
2023-03-25T18:28:50.537Z,73.80
2023-03-25T18:31:18.949Z,74.00
2023-03-25T18:33:52.289Z,75.50
2023-03-25T18:36:23.540Z,77.00
2023-03-25T18:38:55.033Z,79.00
2023-03-25T18:41:23.667Z,81.60
2023-03-25T18:43:51.834Z,83.50
2023-03-25T18:46:20.437Z,86.30
2023-03-25T18:48:49.145Z,87.00
2023-03-25T18:51:17.283Z,89.10
2023-03-25T18:53:47.884Z,90.10
2023-03-25T18:56:16.318Z,90.40
2023-03-25T18:58:47.450Z,90.90
2023-03-25T19:01:22.366Z,91.60
2023-03-25T19:03:51.826Z,92.20
2023-03-25T19:06:20.216Z,92.90
2023-03-25T19:08:48.834Z,93.50
2023-03-25T19:11:21.858Z,94.30
2023-03-25T19:13:52.315Z,95.00
2023-03-25T19:16:21.889Z,95.60
2023-03-25T19:18:51.510Z,96.20
2023-03-25T19:21:20.767Z,97.20
2023-03-25T19:23:59.551Z,98.00
2023-03-25T19:26:28.876Z,98.40
2023-03-25T19:28:58.684Z,98.70
2023-03-25T19:31:30.034Z,99.00
2023-03-25T19:33:58.557Z,98.70
2023-03-25T19:36:27.105Z,99.10
2023-03-25T19:39:05.762Z,99.20
2023-03-25T19:41:35.505Z,99.50
2023-03-25T19:44:03.603Z,99.00
2023-03-25T19:46:34.454Z,99.00
2023-03-25T19:49:02.757Z,98.50
2023-03-25T19:51:32.530Z,98.20
2023-03-25T19:54:05.572Z,98.00
2023-03-25T19:56:37.072Z,97.60
2023-03-25T19:59:06.713Z,97.10
2023-03-25T20:01:39.597Z,96.60
2023-03-25T20:04:10.083Z,96.50
2023-03-25T20:06:38.926Z,96.40
2023-03-25T20:09:08.444Z,96.40
2023-03-25T20:11:40.049Z,96.50
2023-03-25T20:14:08.311Z,96.40
2023-03-25T20:16:39.223Z,96.60
2023-03-25T20:19:07.773Z,96.90
2023-03-25T20:21:36.616Z,96.80
2023-03-25T20:24:08.830Z,97.00
2023-03-25T20:26:38.543Z,96.80
2023-03-25T20:29:09.955Z,96.60
2023-03-25T20:31:38.508Z,96.60
2023-03-25T20:34:07.349Z,96.30
2023-03-25T20:36:35.730Z,96.20
2023-03-25T20:39:06.321Z,96.20
2023-03-25T20:41:35.352Z,96.30
2023-03-25T20:44:03.621Z,96.20
2023-03-25T20:46:32.070Z,96.30
2023-03-25T20:49:00.293Z,95.90
2023-03-25T20:51:28.499Z,95.70
2023-03-25T20:53:57.965Z,95.70
2023-03-25T20:56:27.766Z,95.70
2023-03-25T20:58:56.323Z,95.80
2023-03-25T21:01:24.612Z,95.50
2023-03-25T21:03:55.002Z,95.90
2023-03-25T21:06:25.653Z,95.20
2023-03-25T21:08:58.242Z,95.00
2023-03-25T21:11:31.276Z,94.70
2023-03-25T21:13:59.290Z,94.20
2023-03-25T21:16:27.973Z,94.10
2023-03-25T21:18:58.673Z,93.90
2023-03-25T21:21:41.570Z,93.70
2023-03-25T21:24:11.851Z,93.40
2023-03-25T21:26:39.560Z,93.10
2023-03-25T21:29:07.317Z,92.80
2023-03-25T21:31:34.907Z,92.70
2023-03-25T21:34:02.921Z,92.30
2023-03-25T21:36:32.305Z,92.50
2023-03-25T21:39:02.217Z,91.90
2023-03-25T21:41:32.791Z,91.70
2023-03-25T21:44:00.817Z,91.40
2023-03-25T21:46:28.753Z,91.70
2023-03-25T21:48:58.804Z,91.50
2023-03-25T21:51:27.346Z,91.50
2023-03-25T21:53:59.753Z,91.50
2023-03-25T21:56:32.542Z,91.80
2023-03-25T21:59:02.054Z,91.70
2023-03-25T22:01:29.849Z,92.10
2023-03-25T22:03:58.664Z,92.30
2023-03-25T22:06:31.479Z,93.00
2023-03-25T22:08:59.533Z,93.50
2023-03-25T22:11:31.367Z,93.80
2023-03-25T22:13:58.883Z,93.70
2023-03-25T22:16:27.233Z,93.80
2023-03-25T22:18:54.825Z,94.20
2023-03-25T22:21:24.901Z,94.50
2023-03-25T22:23:55.167Z,94.50
2023-03-25T22:26:23.731Z,94.30
2023-03-25T22:28:57.606Z,94.50
2023-03-25T22:31:32.079Z,94.30
2023-03-25T22:34:04.165Z,94.30
2023-03-25T22:36:33.443Z,93.90
2023-03-25T22:39:01.368Z,93.80
2023-03-25T22:41:28.896Z,93.60
2023-03-25T22:43:56.663Z,93.30
2023-03-25T22:46:24.127Z,92.70
2023-03-25T22:48:51.664Z,92.60
2023-03-25T22:51:20.550Z,92.30
2023-03-25T22:53:48.355Z,92.20
2023-03-25T22:56:15.558Z,91.90
2023-03-25T22:58:43.352Z,91.90
2023-03-25T23:01:31.249Z,91.60
2023-03-25T23:03:59.434Z,91.80
2023-03-25T23:06:27.307Z,91.60
2023-03-25T23:08:58.687Z,91.50
2023-03-25T23:11:29.066Z,91.50
2023-03-25T23:14:02.202Z,91.60
2023-03-25T23:16:34.365Z,91.60
2023-03-25T23:19:03.752Z,91.60
2023-03-25T23:21:32.319Z,91.70
2023-03-25T23:24:01.646Z,91.90
2023-03-25T23:26:36.637Z,91.60
2023-03-25T23:29:06.665Z,92.10
2023-03-25T23:31:37.158Z,92.00
2023-03-25T23:34:07.658Z,92.00
2023-03-25T23:36:37.268Z,92.20
2023-03-25T23:39:06.948Z,92.20
2023-03-25T23:41:35.192Z,92.20
2023-03-25T23:44:03.280Z,92.20
2023-03-25T23:46:31.521Z,92.40
2023-03-25T23:49:05.753Z,92.40
2023-03-25T23:51:38.641Z,92.40
2023-03-25T23:54:07.042Z,92.60
2023-03-25T23:56:34.840Z,92.80
2023-03-25T23:59:02.718Z,92.90
